createdAt,value
2018-10-05T00:02:30.810Z,12.30
2018-10-05T00:07:52.796Z,12.50
2018-10-05T00:13:15.094Z,12.60
2018-10-05T00:18:36.890Z,12.50
2018-10-05T00:23:59.126Z,12.20
2018-10-05T00:29:20.915Z,12.00
2018-10-05T00:34:42.965Z,11.80
2018-10-05T00:40:05.762Z,11.80
2018-10-05T00:45:27.738Z,11.90
2018-10-05T00:50:49.479Z,11.90
2018-10-05T00:56:11.582Z,11.90
2018-10-05T01:01:33.678Z,12.00
2018-10-05T01:06:55.571Z,12.10
2018-10-05T01:12:18.819Z,12.30
2018-10-05T01:17:40.918Z,12.40
2018-10-05T01:23:02.916Z,12.30
2018-10-05T01:28:25.148Z,12.30
2018-10-05T01:33:47.075Z,12.40
2018-10-05T01:39:09.387Z,12.20
2018-10-05T01:44:31.792Z,12.20
2018-10-05T01:49:54.319Z,12.00
2018-10-05T01:55:16.293Z,11.90
2018-10-05T02:00:38.525Z,11.80
2018-10-05T02:06:00.767Z,11.80
2018-10-05T02:11:22.714Z,11.90
2018-10-05T02:16:44.611Z,11.80
2018-10-05T02:22:06.831Z,11.80
2018-10-05T02:27:28.847Z,11.80
2018-10-05T02:32:50.917Z,11.80
2018-10-05T02:38:12.847Z,11.70
2018-10-05T02:43:35.168Z,11.70
2018-10-05T02:48:57.545Z,11.90
2018-10-05T02:54:19.330Z,11.90
2018-10-05T02:59:41.622Z,11.70
2018-10-05T03:05:03.432Z,11.70
2018-10-05T03:10:25.181Z,11.70
2018-10-05T03:15:47.314Z,11.80
2018-10-05T03:21:09.383Z,11.80
2018-10-05T03:26:31.353Z,11.90
2018-10-05T03:31:53.253Z,11.90
2018-10-05T03:37:15.441Z,11.90
2018-10-05T03:42:37.267Z,11.90
2018-10-05T03:47:59.093Z,11.90
2018-10-05T03:53:21.221Z,11.70
2018-10-05T03:58:43.102Z,11.60
2018-10-05T04:04:05.403Z,11.50
2018-10-05T04:09:29.173Z,11.40
2018-10-05T04:14:51.294Z,11.30
2018-10-05T04:20:13.675Z,11.30
2018-10-05T04:25:35.676Z,11.20
2018-10-05T04:30:57.885Z,11.20
2018-10-05T04:36:20.084Z,11.20
2018-10-05T04:41:42.476Z,11.30
2018-10-05T04:47:04.738Z,11.40
2018-10-05T04:52:26.731Z,11.50
2018-10-05T04:57:49.258Z,11.50
2018-10-05T05:03:11.577Z,11.60
2018-10-05T05:08:33.361Z,11.70
2018-10-05T05:13:55.111Z,11.70
2018-10-05T05:19:17.350Z,11.70
2018-10-05T05:24:39.206Z,11.60
2018-10-05T05:30:01.456Z,11.60
2018-10-05T05:35:23.189Z,11.50
2018-10-05T05:40:45.197Z,11.50
2018-10-05T05:46:07.194Z,11.40
2018-10-05T05:51:29.598Z,11.40
2018-10-05T05:56:51.374Z,11.30
2018-10-05T06:02:14.282Z,11.20
2018-10-05T06:07:36.722Z,11.20
2018-10-05T06:12:58.902Z,11.30
2018-10-05T06:18:20.879Z,11.30
2018-10-05T06:23:43.235Z,11.20
2018-10-05T06:29:05.013Z,11.30
2018-10-05T06:34:27.382Z,11.30
2018-10-05T06:39:49.236Z,11.30
2018-10-05T06:45:11.441Z,11.30
2018-10-05T06:50:33.345Z,11.30
2018-10-05T06:55:55.147Z,11.30
2018-10-05T07:01:17.167Z,11.40
2018-10-05T07:06:39.102Z,11.50
2018-10-05T07:12:01.147Z,11.60
2018-10-05T07:17:22.930Z,11.70
2018-10-05T07:22:45.226Z,11.80
2018-10-05T07:28:07.305Z,11.90
2018-10-05T07:33:29.438Z,12.00
2018-10-05T07:38:51.543Z,12.10
2018-10-05T07:44:14.765Z,12.30
2018-10-05T07:49:36.651Z,12.40
2018-10-05T07:56:01.589Z,12.60
2018-10-05T08:01:23.513Z,12.80
2018-10-05T08:06:45.224Z,13.20
2018-10-05T08:12:07.831Z,13.50
2018-10-05T08:17:29.523Z,13.70
2018-10-05T08:22:51.678Z,14.10
2018-10-05T08:28:13.522Z,14.40
2018-10-05T08:33:35.661Z,14.70
2018-10-05T08:38:58.133Z,14.90
2018-10-05T08:44:20.353Z,15.10
2018-10-05T08:49:42.416Z,15.30
2018-10-05T08:55:04.736Z,15.50
2018-10-05T09:00:27.100Z,15.80
2018-10-05T09:05:49.341Z,16.10
2018-10-05T09:11:11.543Z,16.50
2018-10-05T09:16:35.791Z,16.90
2018-10-05T09:21:57.481Z,17.20
2018-10-05T09:27:19.225Z,17.60
2018-10-05T09:32:41.323Z,18.00
2018-10-05T09:38:03.157Z,18.40
2018-10-05T09:43:24.848Z,18.60
2018-10-05T09:48:46.985Z,18.80
2018-10-05T09:54:08.854Z,19.00
2018-10-05T09:59:30.934Z,19.30
2018-10-05T10:04:52.830Z,19.60
2018-10-05T10:10:15.093Z,19.90
2018-10-05T10:15:37.155Z,20.10
2018-10-05T10:20:59.606Z,20.30
2018-10-05T10:26:21.332Z,20.40
2018-10-05T10:31:43.458Z,20.40
2018-10-05T10:37:05.312Z,20.50
2018-10-05T10:42:27.528Z,20.50
2018-10-05T10:47:49.548Z,20.70
2018-10-05T10:53:11.831Z,21.00
2018-10-05T10:58:33.667Z,21.20
2018-10-05T11:03:55.717Z,21.30
2018-10-05T11:09:17.527Z,21.30
2018-10-05T11:14:40.614Z,21.30
2018-10-05T11:20:03.086Z,21.40
2018-10-05T11:25:26.848Z,21.00
2018-10-05T11:30:49.131Z,20.80
2018-10-05T11:36:11.059Z,21.20
2018-10-05T11:41:32.745Z,21.60
2018-10-05T11:46:54.991Z,21.60
2018-10-05T11:52:16.876Z,21.60
2018-10-05T11:57:39.413Z,21.50
2018-10-05T12:03:01.191Z,21.00
2018-10-05T12:08:23.530Z,21.00
2018-10-05T12:13:45.419Z,20.90
2018-10-05T12:19:07.564Z,20.90
2018-10-05T12:24:29.334Z,20.80
2018-10-05T12:29:51.887Z,21.00
2018-10-05T12:35:13.613Z,20.90
2018-10-05T12:40:35.643Z,21.00
2018-10-05T12:45:57.543Z,21.10
2018-10-05T12:51:19.770Z,21.00
2018-10-05T12:56:41.631Z,21.00
2018-10-05T13:02:03.734Z,20.50
2018-10-05T13:07:25.636Z,20.60
2018-10-05T13:12:47.948Z,20.60
2018-10-05T13:18:12.284Z,20.90
2018-10-05T13:23:34.029Z,20.80
2018-10-05T13:28:56.297Z,20.60
2018-10-05T13:34:19.385Z,20.80
2018-10-05T13:39:41.321Z,20.80
2018-10-05T13:45:03.394Z,20.90
2018-10-05T13:50:25.171Z,20.60
2018-10-05T13:55:47.357Z,20.50
2018-10-05T14:01:09.682Z,20.40
2018-10-05T14:06:31.913Z,20.30
2018-10-05T14:11:54.108Z,20.30
2018-10-05T14:17:16.273Z,20.20
2018-10-05T14:22:38.412Z,20.30
2018-10-05T14:28:00.377Z,20.30
2018-10-05T14:33:22.646Z,20.20
2018-10-05T14:38:44.942Z,20.00
2018-10-05T14:44:06.911Z,20.10
2018-10-05T14:49:28.862Z,19.90
2018-10-05T14:54:50.825Z,20.00
2018-10-05T15:00:12.737Z,20.00
2018-10-05T15:05:34.782Z,20.00
2018-10-05T15:10:56.810Z,20.00
2018-10-05T15:16:18.869Z,20.00
2018-10-05T15:21:40.574Z,20.00
2018-10-05T15:27:02.368Z,19.60
2018-10-05T15:32:24.555Z,19.40
2018-10-05T15:37:46.524Z,19.30
2018-10-05T15:43:08.756Z,19.30
2018-10-05T15:48:30.515Z,19.20
2018-10-05T15:53:52.706Z,19.00
2018-10-05T15:59:14.551Z,19.00
2018-10-05T16:04:36.625Z,18.80
2018-10-05T16:09:58.365Z,18.70
2018-10-05T16:15:20.726Z,18.70
2018-10-05T16:20:42.670Z,18.70
2018-10-05T16:26:04.783Z,18.40
2018-10-05T16:31:26.570Z,18.40
2018-10-05T16:36:48.789Z,18.30
2018-10-05T16:42:10.551Z,18.20
2018-10-05T16:47:32.952Z,18.10
2018-10-05T16:52:54.639Z,18.00
2018-10-05T16:58:16.843Z,17.90
2018-10-05T17:03:38.748Z,17.90
2018-10-05T17:09:04.086Z,17.90
2018-10-05T17:14:26.002Z,17.70
2018-10-05T17:19:47.752Z,17.50
2018-10-05T17:25:09.746Z,17.40
2018-10-05T17:30:31.522Z,17.30
2018-10-05T17:35:53.627Z,17.00
2018-10-05T17:41:15.796Z,16.90
2018-10-05T17:46:37.952Z,16.90
2018-10-05T17:51:59.833Z,16.90
2018-10-05T17:57:22.032Z,16.90
2018-10-05T18:02:43.939Z,16.80
2018-10-05T18:08:06.116Z,16.80
2018-10-05T18:13:28.029Z,16.70
2018-10-05T18:18:49.792Z,16.60
2018-10-05T18:24:12.074Z,16.40
2018-10-05T18:29:33.878Z,16.30
2018-10-05T18:34:55.994Z,16.10
2018-10-05T18:40:17.962Z,15.90
2018-10-05T18:45:40.153Z,15.80
2018-10-05T18:51:01.932Z,15.70
2018-10-05T18:56:34.091Z,15.60
2018-10-05T19:01:56.190Z,15.00
2018-10-05T19:07:18.027Z,14.90
2018-10-05T19:12:40.188Z,14.90
2018-10-05T19:18:02.134Z,14.90
2018-10-05T19:23:24.366Z,14.80
2018-10-05T19:28:46.294Z,14.80
2018-10-05T19:34:08.648Z,14.70
2018-10-05T19:39:30.554Z,14.20
2018-10-05T19:44:52.622Z,14.10
2018-10-05T19:50:14.500Z,14.20
2018-10-05T19:55:36.567Z,14.20
2018-10-05T20:00:58.589Z,14.10
2018-10-05T20:06:20.833Z,13.60
2018-10-05T20:11:42.602Z,13.30
2018-10-05T20:17:04.405Z,13.40
2018-10-05T20:22:26.582Z,13.50
2018-10-05T20:27:48.521Z,13.50
2018-10-05T20:33:14.336Z,13.30
2018-10-05T20:38:36.560Z,13.10
2018-10-05T20:43:58.455Z,13.00
2018-10-05T20:49:20.553Z,12.90
2018-10-05T20:54:44.178Z,12.60
2018-10-05T21:00:06.446Z,12.30
2018-10-05T21:05:29.817Z,12.10
2018-10-05T21:10:51.530Z,12.00
2018-10-05T21:16:13.639Z,12.00
2018-10-05T21:21:35.434Z,12.00
2018-10-05T21:26:57.598Z,12.10
2018-10-05T21:32:19.374Z,12.20
2018-10-05T21:37:41.722Z,12.20
2018-10-05T21:43:03.706Z,12.10
2018-10-05T21:48:25.721Z,11.90
2018-10-05T21:53:47.611Z,11.80
2018-10-05T21:59:09.731Z,11.90
2018-10-05T22:04:31.628Z,12.00
2018-10-05T22:09:53.341Z,12.00
2018-10-05T22:15:15.462Z,12.10
2018-10-05T22:20:37.237Z,12.00
2018-10-05T22:25:59.342Z,12.00
2018-10-05T22:31:21.141Z,12.00
2018-10-05T22:36:43.403Z,12.10
2018-10-05T22:42:05.522Z,12.00
2018-10-05T22:47:27.986Z,11.90
2018-10-05T22:52:49.685Z,12.00
2018-10-05T22:58:12.105Z,11.90
2018-10-05T23:03:34.417Z,12.00
2018-10-05T23:08:56.422Z,12.00
2018-10-05T23:14:18.979Z,12.00
2018-10-05T23:19:40.760Z,12.00
2018-10-05T23:25:02.956Z,12.00
2018-10-05T23:30:24.849Z,11.80
2018-10-05T23:35:47.145Z,11.80
2018-10-05T23:41:08.954Z,11.80
2018-10-05T23:46:31.271Z,11.70
2018-10-05T23:51:53.037Z,11.70
2018-10-05T23:57:15.262Z,11.80
